Skive, Denmark
Current Conditions -  °F | °C
As of 2:20 AM on Friday 28 Nov 2014 (Local Time) from EKKA Reporting Station
Scattered Clouds Scattered Clouds  
Wind Chill: 31°   Ceiling: Unl
Heat Index: 39°   Visibility: 6mi
Dew Point: 34°   Wind: 14mph
Humidity: 81%   Direction: 110°ESE
Pressure: 30.06"   Gusts: NA
Location:  56.57°N, 9.02°E
Report Text: EKKA 280120Z AUTO 11012KT 9999NDV SCT220/// 04/01 Q1018
Loading
Personal Weather Stations






























Interactive Weather Map New forecast layout! Learn more

10-Day Weather Forecast

Advertisements
Track Severe Weather on mobile